Terminal Aerodrome Forecast
Issued by NWS St Louis, MO

Home | Current Version | Previous Version | Graphics & Text | Print | Product List | Glossary Off
Versions: 1 2 3 4 5 6 7 8 9 10 11 12 13 14 15 16 17 18 19 20 21 22 23 24 25 26 27 28

000
FTUS43 KLSX 231500 AAA
TAFSTL
TAF AMD
KSTL 231512Z 2315/2418 14012KT P6SM -RA SCT015 OVC090
      TEMPO 2315/2319 5SM -RA BKN015
     FM232000 15012KT 3SM -RA OVC009
     FM240700 28012G20KT 4SM -RA SCT007 OVC012
     FM241300 28015G25KT P6SM -RASN SCT012 OVC025=

USA.gov is the U.S. government's official web portal to all federal, state and local government web resources and services.